createdAt,value
2023-03-02T00:02:16.245Z,3.50
2023-03-02T00:04:58.556Z,3.40
2023-03-02T00:07:34.413Z,3.50
2023-03-02T00:10:02.508Z,3.50
2023-03-02T00:12:32.446Z,3.40
2023-03-02T00:15:01.680Z,3.50
2023-03-02T00:17:30.212Z,3.40
2023-03-02T00:20:11.367Z,3.40
2023-03-02T00:22:39.294Z,3.40
2023-03-02T00:25:08.964Z,3.40
2023-03-02T00:27:37.376Z,3.30
2023-03-02T00:30:05.987Z,3.30
2023-03-02T00:32:35.837Z,3.20
2023-03-02T00:35:05.007Z,3.30
2023-03-02T00:37:32.119Z,3.20
2023-03-02T00:39:59.059Z,3.20
2023-03-02T00:42:26.203Z,3.20
2023-03-02T00:44:53.603Z,3.30
2023-03-02T00:47:20.714Z,3.20
2023-03-02T00:49:49.687Z,3.20
2023-03-02T00:52:17.722Z,3.10
2023-03-02T00:54:44.889Z,3.20
2023-03-02T00:57:12.282Z,3.10
2023-03-02T00:59:42.209Z,3.20
2023-03-02T01:02:24.223Z,3.10
2023-03-02T01:04:53.371Z,3.10
2023-03-02T01:07:22.540Z,3.10
2023-03-02T01:09:50.885Z,3.10
2023-03-02T01:12:18.976Z,3.00
2023-03-02T01:14:49.508Z,3.00
2023-03-02T01:17:17.089Z,3.00
2023-03-02T01:19:45.090Z,3.00
2023-03-02T01:22:15.740Z,3.00
2023-03-02T01:24:46.604Z,2.90
2023-03-02T01:27:35.808Z,2.90
2023-03-02T01:30:04.680Z,2.90
2023-03-02T01:32:33.827Z,2.90
2023-03-02T01:35:01.431Z,2.90
2023-03-02T01:37:29.459Z,2.90
2023-03-02T01:39:56.481Z,2.80
2023-03-02T01:42:26.788Z,2.70
2023-03-02T01:44:57.221Z,2.60
2023-03-02T01:47:33.760Z,2.80
2023-03-02T01:50:40.955Z,2.70
2023-03-02T01:53:10.162Z,2.80
2023-03-02T01:55:39.635Z,2.80
2023-03-02T01:58:08.224Z,2.60
2023-03-02T02:00:38.107Z,2.70
2023-03-02T02:03:27.340Z,2.70
2023-03-02T02:06:12.000Z,2.60
2023-03-02T02:08:40.367Z,2.60
2023-03-02T02:11:09.625Z,2.50
2023-03-02T02:13:36.974Z,2.50
2023-03-02T02:16:07.429Z,2.50
2023-03-02T02:18:37.732Z,2.60
2023-03-02T02:21:06.980Z,2.60
2023-03-02T02:23:47.862Z,2.70
2023-03-02T02:26:26.520Z,2.50
2023-03-02T02:29:03.663Z,2.60
2023-03-02T02:31:48.745Z,2.60
2023-03-02T02:34:30.939Z,2.60
2023-03-02T02:37:09.683Z,2.50
2023-03-02T02:39:43.400Z,2.60
2023-03-02T02:42:21.806Z,2.50
2023-03-02T02:44:49.122Z,2.50
2023-03-02T02:47:28.246Z,2.50
2023-03-02T02:49:57.471Z,2.50
2023-03-02T02:52:27.983Z,2.50
2023-03-02T02:54:57.826Z,2.50
2023-03-02T02:57:28.562Z,2.50
2023-03-02T03:00:00.999Z,2.60
2023-03-02T03:02:37.369Z,2.40
2023-03-02T03:05:06.757Z,2.40
2023-03-02T03:07:36.797Z,2.30
2023-03-02T03:10:19.448Z,2.30
2023-03-02T03:12:48.973Z,2.30
2023-03-02T03:15:18.895Z,2.30
2023-03-02T03:17:57.545Z,2.40
2023-03-02T03:20:27.943Z,2.40
2023-03-02T03:22:55.215Z,2.30
2023-03-02T03:25:26.725Z,2.20
2023-03-02T03:27:55.273Z,2.30
2023-03-02T03:30:22.683Z,2.20
2023-03-02T03:32:51.236Z,2.20
2023-03-02T03:35:38.789Z,2.20
2023-03-02T03:38:08.024Z,2.20
2023-03-02T03:40:36.116Z,2.20
2023-03-02T03:43:05.076Z,2.20
2023-03-02T03:45:36.462Z,2.10
2023-03-02T03:48:15.260Z,2.10
2023-03-02T03:50:46.430Z,2.20
2023-03-02T03:53:46.093Z,2.10
2023-03-02T03:56:13.501Z,2.00
2023-03-02T03:58:42.610Z,2.00
2023-03-02T04:01:15.088Z,1.90
2023-03-02T04:03:44.291Z,2.00
2023-03-02T04:06:20.685Z,2.00
2023-03-02T04:08:48.076Z,2.00
2023-03-02T04:11:15.182Z,2.00
2023-03-02T04:13:42.351Z,2.00
2023-03-02T04:16:11.528Z,2.00
2023-03-02T04:18:38.744Z,1.90
2023-03-02T04:21:07.307Z,1.90
2023-03-02T04:23:34.430Z,1.90
2023-03-02T04:26:09.507Z,1.90
2023-03-02T04:28:38.852Z,1.90
2023-03-02T04:31:07.418Z,1.90
2023-03-02T04:33:34.830Z,1.90
2023-03-02T04:36:03.952Z,1.90
2023-03-02T04:38:31.470Z,1.90
2023-03-02T04:40:59.255Z,1.80
2023-03-02T04:43:28.405Z,1.90
2023-03-02T04:45:55.606Z,1.80
2023-03-02T04:48:29.253Z,1.80
2023-03-02T04:50:58.457Z,1.90
2023-03-02T04:53:27.654Z,1.80
2023-03-02T04:55:54.829Z,1.80
2023-03-02T04:58:22.720Z,1.70
2023-03-02T05:00:49.855Z,1.60
2023-03-02T05:03:16.982Z,1.70
2023-03-02T05:05:43.983Z,1.70
2023-03-02T05:08:12.428Z,1.70
2023-03-02T05:10:53.046Z,1.70
2023-03-02T05:13:21.667Z,1.70
2023-03-02T05:15:50.945Z,1.70
2023-03-02T05:18:19.169Z,1.60
2023-03-02T05:20:47.197Z,1.50
2023-03-02T05:23:34.660Z,1.50
2023-03-02T05:26:05.029Z,1.50
2023-03-02T05:28:38.002Z,1.60
2023-03-02T05:31:07.373Z,1.50
2023-03-02T05:33:34.842Z,1.60
2023-03-02T05:36:05.002Z,1.60
2023-03-02T05:38:34.501Z,1.60
2023-03-02T05:41:05.398Z,1.50
2023-03-02T05:43:32.964Z,1.50
2023-03-02T05:46:00.661Z,1.50
2023-03-02T05:48:29.687Z,1.60
2023-03-02T05:50:57.485Z,1.60
2023-03-02T05:53:25.550Z,1.60
2023-03-02T05:55:54.189Z,1.50
2023-03-02T05:58:22.741Z,1.40
2023-03-02T06:00:50.188Z,1.50
2023-03-02T06:03:17.914Z,1.50
2023-03-02T06:05:52.870Z,1.30
2023-03-02T06:08:21.772Z,1.40
2023-03-02T06:10:51.016Z,1.40
2023-03-02T06:13:18.402Z,1.50
2023-03-02T06:15:45.442Z,1.40
2023-03-02T06:18:12.734Z,1.30
2023-03-02T06:20:40.579Z,1.30
2023-03-02T06:23:07.632Z,1.30
2023-03-02T06:25:37.654Z,1.40
2023-03-02T06:28:06.821Z,1.40
2023-03-02T06:30:35.401Z,1.40
2023-03-02T06:33:04.420Z,1.30
2023-03-02T06:35:34.233Z,1.40
2023-03-02T06:38:02.832Z,1.40
2023-03-02T06:40:30.621Z,1.40
2023-03-02T06:43:01.311Z,1.40
2023-03-02T06:45:29.926Z,1.30
2023-03-02T06:47:58.021Z,1.30
2023-03-02T06:50:27.693Z,1.40
2023-03-02T06:52:54.604Z,1.30
2023-03-02T06:55:22.672Z,1.30
2023-03-02T06:57:49.926Z,1.50
2023-03-02T07:00:18.642Z,1.60
2023-03-02T07:02:50.136Z,1.50
2023-03-02T07:05:19.803Z,1.40
2023-03-02T07:07:48.067Z,1.40
2023-03-02T07:10:20.725Z,1.40
2023-03-02T07:12:47.939Z,1.50
2023-03-02T07:15:28.198Z,1.50
2023-03-02T07:17:59.103Z,1.60
2023-03-02T07:20:27.330Z,1.70
2023-03-02T07:22:55.551Z,1.50
2023-03-02T07:25:24.252Z,1.50
2023-03-02T07:27:53.687Z,1.60
2023-03-02T07:30:22.020Z,1.80
2023-03-02T07:32:51.696Z,1.90
2023-03-02T07:35:18.917Z,1.80
2023-03-02T07:37:47.105Z,1.70
2023-03-02T07:40:17.760Z,1.80
2023-03-02T07:42:47.941Z,1.80
2023-03-02T07:45:19.562Z,2.00
2023-03-02T07:47:48.926Z,2.00
2023-03-02T07:50:16.034Z,1.80
2023-03-02T07:52:45.308Z,1.80
2023-03-02T07:55:15.986Z,1.90
2023-03-02T07:57:48.994Z,2.10
2023-03-02T08:00:37.068Z,2.20
2023-03-02T08:03:09.145Z,2.10
2023-03-02T08:05:38.440Z,2.10
2023-03-02T08:08:08.948Z,2.20
2023-03-02T08:10:39.468Z,2.20
2023-03-02T08:13:11.438Z,2.30
2023-03-02T08:15:39.002Z,2.20
2023-03-02T08:18:06.182Z,2.40
2023-03-02T08:20:33.487Z,2.30
2023-03-02T08:23:00.486Z,2.40
2023-03-02T08:25:27.826Z,2.40
2023-03-02T08:27:57.128Z,2.40
2023-03-02T08:30:25.580Z,2.60
2023-03-02T08:32:52.911Z,2.70
2023-03-02T08:38:14.825Z,2.80
2023-03-02T08:41:09.112Z,2.80
2023-03-02T08:43:39.066Z,2.80
2023-03-02T08:46:21.870Z,3.00
2023-03-02T08:48:51.087Z,2.90
2023-03-02T08:51:23.997Z,2.90
2023-03-02T08:53:52.261Z,3.00
2023-03-02T08:56:32.589Z,3.00
2023-03-02T08:59:05.527Z,3.10
2023-03-02T09:01:35.861Z,3.20
2023-03-02T09:04:07.098Z,3.40
2023-03-02T09:06:38.677Z,3.40
2023-03-02T09:09:44.574Z,3.40
2023-03-02T09:12:22.872Z,3.50
2023-03-02T09:18:14.849Z,3.60
2023-03-02T09:19:49.358Z,3.70
2023-03-02T09:22:29.140Z,3.80
2023-03-02T09:24:57.573Z,3.80
2023-03-02T09:27:32.370Z,3.90
2023-03-02T09:30:00.824Z,3.90
2023-03-02T09:32:29.973Z,4.00
2023-03-02T09:34:56.978Z,4.10
2023-03-02T09:37:24.907Z,4.00
2023-03-02T09:39:52.917Z,4.20
2023-03-02T09:42:49.540Z,4.40
2023-03-02T09:45:39.785Z,4.40
2023-03-02T09:48:41.357Z,4.50
2023-03-02T09:51:35.246Z,4.60
2023-03-02T09:54:17.694Z,4.70
2023-03-02T09:56:50.765Z,4.80
2023-03-02T09:59:50.258Z,4.70
2023-03-02T10:02:31.625Z,4.80
2023-03-02T10:05:02.323Z,4.90
2023-03-02T10:07:32.832Z,4.90
2023-03-02T10:10:15.155Z,5.00
2023-03-02T10:13:09.831Z,5.10
2023-03-02T10:15:46.594Z,5.10
2023-03-02T10:18:23.814Z,5.20
2023-03-02T10:21:02.452Z,5.30
2023-03-02T10:23:48.772Z,5.30
2023-03-02T10:26:24.675Z,5.50
2023-03-02T10:29:30.225Z,5.50
2023-03-02T10:32:17.421Z,5.50
2023-03-02T10:34:44.970Z,5.60
2023-03-02T10:37:18.171Z,5.60
2023-03-02T10:39:45.457Z,5.70
2023-03-02T10:42:34.003Z,5.70
2023-03-02T10:45:32.243Z,5.70
2023-03-02T10:48:05.973Z,5.80
2023-03-02T10:50:35.538Z,5.90
2023-03-02T10:53:09.112Z,6.00
2023-03-02T10:55:44.199Z,6.00
2023-03-02T10:58:30.284Z,6.10
2023-03-02T11:01:03.002Z,6.20
2023-03-02T11:03:32.378Z,6.50
2023-03-02T11:06:19.808Z,6.90
2023-03-02T11:09:04.937Z,7.60
2023-03-02T11:11:35.802Z,8.60
2023-03-02T11:14:16.239Z,9.20
2023-03-02T11:16:43.705Z,9.60
2023-03-02T11:19:36.807Z,10.20
2023-03-02T11:22:37.652Z,10.60
2023-03-02T11:25:12.883Z,11.30
2023-03-02T11:27:43.167Z,11.90
2023-03-02T11:30:17.278Z,12.10
2023-03-02T11:32:56.404Z,12.60
2023-03-02T11:36:04.988Z,12.70
2023-03-02T11:38:43.252Z,12.80
2023-03-02T11:41:35.032Z,13.10
2023-03-02T11:44:20.609Z,13.60
2023-03-02T11:47:09.762Z,13.40
2023-03-02T11:49:50.064Z,13.40
2023-03-02T11:52:21.578Z,13.20
2023-03-02T11:54:59.544Z,13.30
2023-03-02T11:57:39.808Z,13.60
2023-03-02T12:00:26.414Z,13.70
2023-03-02T12:03:07.671Z,13.60
2023-03-02T12:05:41.481Z,14.10
2023-03-02T12:08:33.048Z,14.80
2023-03-02T12:11:31.168Z,14.80
2023-03-02T12:14:24.812Z,14.70
2023-03-02T12:16:52.607Z,14.80
2023-03-02T12:19:27.939Z,14.50
2023-03-02T12:22:10.140Z,14.70
2023-03-02T12:24:44.441Z,14.70
2023-03-02T12:27:26.162Z,14.90
2023-03-02T12:30:11.352Z,15.00
2023-03-02T12:32:41.109Z,15.00
2023-03-02T12:35:15.489Z,15.50
2023-03-02T12:37:48.344Z,15.60
2023-03-02T12:40:46.928Z,15.70
2023-03-02T12:43:36.870Z,15.80
2023-03-02T12:46:27.913Z,15.70
2023-03-02T12:49:28.879Z,15.70
2023-03-02T12:52:01.465Z,16.00
2023-03-02T12:54:34.797Z,16.30
2023-03-02T12:57:20.591Z,16.30
2023-03-02T12:59:56.647Z,16.00
2023-03-02T13:02:29.960Z,15.90
2023-03-02T13:05:02.953Z,16.10
2023-03-02T13:07:46.827Z,16.30
2023-03-02T13:10:41.353Z,16.80
2023-03-02T13:13:22.445Z,16.90
2023-03-02T13:15:54.914Z,16.40
2023-03-02T13:18:23.446Z,16.10
2023-03-02T13:20:51.587Z,15.80
2023-03-02T13:23:20.109Z,15.40
2023-03-02T13:25:59.124Z,15.50
2023-03-02T13:28:37.433Z,15.40
2023-03-02T13:31:16.174Z,15.40
2023-03-02T13:33:52.379Z,14.70
2023-03-02T13:36:21.581Z,14.00
2023-03-02T13:38:54.122Z,13.40
2023-03-02T13:41:23.001Z,12.90
2023-03-02T13:43:50.279Z,12.30
2023-03-02T13:46:18.751Z,11.90
2023-03-02T13:49:10.101Z,11.60
2023-03-02T13:51:49.329Z,11.30
2023-03-02T13:57:52.854Z,11.00
2023-03-02T14:04:47.298Z,10.70
2023-03-02T14:07:17.709Z,10.50
2023-03-02T14:09:45.046Z,10.50
2023-03-02T14:12:25.505Z,10.40
2023-03-02T14:15:00.307Z,10.30
2023-03-02T14:17:27.521Z,10.20
2023-03-02T14:19:56.607Z,10.20
2023-03-02T14:22:29.707Z,10.10
2023-03-02T14:25:01.953Z,10.10
2023-03-02T14:27:30.875Z,10.20
2023-03-02T14:30:01.945Z,10.10
2023-03-02T14:32:32.146Z,10.10
2023-03-02T14:35:06.639Z,10.10
2023-03-02T14:37:37.294Z,10.10
2023-03-02T14:40:07.831Z,10.20
2023-03-02T14:42:35.006Z,10.10
2023-03-02T14:45:01.905Z,10.10
2023-03-02T14:47:30.415Z,10.10
2023-03-02T14:49:57.527Z,10.10
2023-03-02T14:56:12.409Z,10.20
2023-03-02T14:58:41.635Z,10.10
2023-03-02T15:01:12.606Z,10.10
2023-03-02T15:04:06.590Z,10.20
2023-03-02T15:06:46.542Z,10.20
2023-03-02T15:09:14.973Z,10.40
2023-03-02T15:11:47.598Z,10.30
2023-03-02T15:14:14.549Z,10.30
2023-03-02T15:16:43.162Z,10.30
2023-03-02T15:19:35.796Z,10.30
2023-03-02T15:22:06.744Z,10.30
2023-03-02T15:24:40.275Z,10.30
2023-03-02T15:28:06.167Z,10.30
2023-03-02T15:30:39.498Z,10.30
2023-03-02T15:33:08.828Z,10.40
2023-03-02T15:35:39.705Z,10.40
2023-03-02T15:38:19.429Z,10.40
2023-03-02T15:40:47.024Z,10.40
2023-03-02T15:43:17.035Z,10.30
2023-03-02T15:45:48.262Z,10.50
2023-03-02T15:51:03.945Z,10.50
2023-03-02T15:53:38.058Z,10.50
2023-03-02T15:56:12.290Z,10.50
2023-03-02T15:58:41.329Z,10.50
2023-03-02T16:01:11.389Z,10.50
2023-03-02T16:03:39.478Z,10.40
2023-03-02T16:06:08.776Z,10.40
2023-03-02T16:08:36.815Z,10.50
2023-03-02T16:11:08.489Z,10.50
2023-03-02T16:13:35.764Z,10.50
2023-03-02T16:16:04.893Z,10.50
2023-03-02T16:18:38.080Z,10.60
2023-03-02T16:21:13.589Z,10.60
2023-03-02T16:23:40.699Z,10.50
2023-03-02T16:26:15.363Z,10.50
2023-03-02T16:29:33.272Z,10.40
2023-03-02T16:32:00.415Z,10.40
2023-03-02T16:34:27.774Z,10.30
2023-03-02T16:36:54.752Z,10.30
2023-03-02T16:39:22.755Z,10.30
2023-03-02T16:42:22.019Z,10.30
2023-03-02T16:44:52.560Z,10.40
2023-03-02T16:47:20.461Z,10.20
2023-03-02T16:49:48.587Z,10.20
2023-03-02T16:52:18.553Z,10.30
2023-03-02T16:54:46.872Z,10.20
2023-03-02T16:57:16.261Z,10.10
2023-03-02T16:59:47.560Z,10.10
2023-03-02T17:02:27.283Z,10.10
2023-03-02T17:04:58.376Z,10.00
2023-03-02T17:07:27.706Z,10.10
2023-03-02T17:09:54.655Z,10.10
2023-03-02T17:12:21.716Z,10.00
2023-03-02T17:14:50.586Z,10.00
2023-03-02T17:17:19.416Z,10.00
2023-03-02T17:19:47.517Z,9.90
2023-03-02T17:22:16.284Z,9.90
2023-03-02T17:24:44.533Z,10.00
2023-03-02T17:27:24.082Z,9.90
2023-03-02T17:29:56.636Z,9.80
2023-03-02T17:32:25.087Z,9.80
2023-03-02T17:35:45.100Z,9.80
2023-03-02T17:38:37.735Z,9.70
2023-03-02T17:41:06.116Z,9.60
2023-03-02T17:43:38.601Z,9.40
2023-03-02T17:46:10.333Z,9.40
2023-03-02T17:48:40.657Z,9.30
2023-03-02T17:51:10.329Z,9.30
2023-03-02T17:53:39.984Z,9.30
2023-03-02T17:56:07.592Z,9.20
2023-03-02T17:58:44.612Z,9.20
2023-03-02T18:01:13.373Z,9.20
2023-03-02T18:03:42.726Z,9.20
2023-03-02T18:06:09.942Z,9.10
2023-03-02T18:08:37.942Z,9.00
2023-03-02T18:11:08.710Z,9.10
2023-03-02T18:13:36.990Z,9.00
2023-03-02T18:16:54.932Z,9.10
2023-03-02T18:19:28.081Z,9.00
2023-03-02T18:21:58.410Z,9.00
2023-03-02T18:24:29.428Z,8.90
2023-03-02T18:26:58.480Z,8.90
2023-03-02T18:29:26.881Z,8.90
2023-03-02T18:31:58.268Z,8.90
2023-03-02T18:34:27.072Z,8.80
2023-03-02T18:36:57.209Z,8.80
2023-03-02T18:39:28.998Z,8.70
2023-03-02T18:41:57.184Z,8.70
2023-03-02T18:44:28.290Z,8.80
2023-03-02T18:46:57.037Z,8.80
2023-03-02T18:49:24.955Z,8.70
2023-03-02T18:51:53.019Z,8.80
2023-03-02T18:54:20.066Z,8.60
2023-03-02T18:56:48.433Z,8.70
2023-03-02T18:59:20.317Z,8.60
2023-03-02T19:01:47.805Z,8.50
2023-03-02T19:04:15.371Z,8.50
2023-03-02T19:06:45.928Z,8.50
2023-03-02T19:09:12.934Z,8.50
2023-03-02T19:11:41.028Z,8.50
2023-03-02T19:14:09.385Z,8.50
2023-03-02T19:16:36.619Z,8.40
2023-03-02T19:19:04.725Z,8.40
2023-03-02T19:21:36.562Z,8.30
2023-03-02T19:24:03.971Z,8.20
2023-03-02T19:26:32.626Z,8.30
2023-03-02T19:29:18.596Z,8.30
2023-03-02T19:31:47.261Z,8.20
2023-03-02T19:34:17.313Z,8.20
2023-03-02T19:36:46.813Z,8.10
2023-03-02T19:39:14.628Z,8.00
2023-03-02T19:41:44.030Z,8.00
2023-03-02T19:44:12.734Z,8.00
2023-03-02T19:46:42.781Z,8.00
2023-03-02T19:49:11.318Z,8.10
2023-03-02T19:51:39.940Z,8.00
2023-03-02T19:54:07.068Z,8.00
2023-03-02T19:56:39.853Z,8.00
2023-03-02T19:59:12.312Z,8.10
2023-03-02T20:01:39.699Z,8.00
2023-03-02T20:04:07.974Z,7.90
2023-03-02T20:06:35.796Z,8.00
2023-03-02T20:19:08.068Z,7.70
2023-03-02T20:21:38.485Z,7.60
2023-03-02T20:24:08.096Z,7.50
2023-03-02T20:26:36.904Z,7.50
2023-03-02T20:29:06.362Z,7.50
2023-03-02T20:31:40.544Z,7.50
2023-03-02T20:34:13.179Z,7.40
2023-03-02T20:36:42.644Z,7.40
2023-03-02T20:39:31.299Z,7.20
2023-03-02T20:41:58.713Z,7.10
2023-03-02T20:44:33.879Z,7.20
2023-03-02T20:47:04.772Z,7.10
2023-03-02T20:49:35.032Z,7.20
2023-03-02T20:52:07.867Z,7.20
2023-03-02T20:54:42.246Z,7.10
2023-03-02T20:57:19.565Z,7.10
2023-03-02T20:59:48.920Z,7.10
2023-03-02T21:02:27.114Z,7.00
2023-03-02T21:04:56.605Z,7.00
2023-03-02T21:07:26.708Z,7.00
2023-03-02T21:10:04.678Z,6.90
2023-03-02T21:12:34.505Z,6.80
2023-03-02T21:15:40.640Z,6.90
2023-03-02T21:18:17.243Z,6.80
2023-03-02T21:20:47.696Z,6.70
2023-03-02T21:23:19.158Z,6.70
2023-03-02T21:25:48.655Z,6.60
2023-03-02T21:28:20.625Z,6.50
2023-03-02T21:30:50.543Z,6.60
2023-03-02T21:33:20.804Z,6.50
2023-03-02T21:35:53.853Z,6.50
2023-03-02T21:38:22.075Z,6.60
2023-03-02T21:41:04.136Z,6.60
2023-03-02T21:43:43.480Z,6.60
2023-03-02T21:46:16.991Z,6.50
2023-03-02T21:48:45.126Z,6.40
2023-03-02T21:51:15.575Z,6.30
2023-03-02T21:53:48.495Z,6.30
2023-03-02T21:56:20.967Z,6.30
2023-03-02T22:24:26.887Z,5.70
2023-03-02T22:27:31.293Z,5.80
2023-03-02T22:30:02.180Z,5.60
2023-03-02T22:32:33.990Z,5.60
2023-03-02T22:35:28.341Z,5.50
2023-03-02T22:38:07.866Z,5.50
2023-03-02T22:40:36.640Z,5.50
2023-03-02T22:43:19.698Z,5.40
2023-03-02T22:46:17.685Z,5.50
2023-03-02T22:49:22.308Z,5.40
2023-03-02T22:52:35.686Z,5.50
2023-03-02T22:59:50.070Z,5.30
2023-03-02T23:02:23.386Z,5.30
2023-03-02T23:04:54.007Z,5.40
2023-03-02T23:07:23.555Z,5.40
2023-03-02T23:09:50.939Z,5.40
2023-03-02T23:12:29.491Z,5.20
2023-03-02T23:15:04.039Z,5.10
2023-03-02T23:17:36.106Z,5.00
2023-03-02T23:20:13.114Z,5.00
2023-03-02T23:22:42.737Z,4.90
2023-03-02T23:25:14.341Z,4.90
2023-03-02T23:27:45.366Z,4.90
2023-03-02T23:30:14.809Z,5.00
2023-03-02T23:32:47.807Z,5.00
2023-03-02T23:35:15.444Z,4.80
2023-03-02T23:40:25.765Z,4.70
2023-03-02T23:42:56.928Z,4.70
2023-03-02T23:45:28.428Z,4.70
2023-03-02T23:52:21.233Z,4.60
2023-03-02T23:54:50.552Z,4.60
2023-03-02T23:57:18.676Z,4.60
2023-03-02T23:59:46.773Z,4.60
